Dati Storici

Data ora Umidita' aria (%) Temperatura aria (°C) Rad globale (W/m²) Gonioanemometro (°) Tacoanemometro (m/s) Pioggia (mm)
30-06-2020 11:30 58.6 % 28.827 -83.689 3.317 0 0
30-06-2020 11:20 59.7 % 28.438 -83.324 2.344 0 0
30-06-2020 11:10 60.8 % 28.795 -80.442 0.527 0 0
30-06-2020 11:00 60.4 % 27.937 -78.201 2.255 0 0
30-06-2020 10:50 60.3 % 28.655 -74.563 2.609 0 0
30-06-2020 10:40 61.5 % 28.358 -70.696 1.947 0 0
30-06-2020 10:30 61.2 % 28.517 -80.334 0.694 0 0
30-06-2020 10:20 61.7 % 27.179 -82.503 4.74 0 0
30-06-2020 10:10 61.3 % 28.092 -81.267 0.6 0 0
30-06-2020 10:00 60.4 % 27.407 -83.952 3.046 0 0
30-06-2020 09:50 60.6 % 27.091 -85.276 1.941 0 0
30-06-2020 09:40 60.4 % 26.989 -83.122 3.934 0 0
30-06-2020 09:30 60.3 % 26.729 -64.609 2.091 0 0
30-06-2020 09:20 59.5 % 27.489 -80.642 1.688 0 0
30-06-2020 09:10 59.6 % 26.74 -60.216 2.754 0 0
30-06-2020 09:00 60 % 26.682 64.061 3.552 0 0
30-06-2020 08:50 60.8 % 26.145 -68.107 2.589 0 0
30-06-2020 08:40 61.6 % 26.012 48.125 2.384 0 0
30-06-2020 08:30 60.9 % 25.261 -80.281 3.934 0 0
30-06-2020 08:20 60.7 % 25.201 -84.874 3.449 0 0

I dati sono presentati in modo automatico a scopo informativo. In seguito a verifica i dati possono subire modifiche o essere invalidati e non riportati negli archivi definitivi.